createdAt,value
2018-09-26T00:01:32.848Z,6.90
2018-09-26T00:06:36.003Z,6.70
2018-09-26T00:11:38.995Z,6.60
2018-09-26T00:16:42.012Z,6.60
2018-09-26T00:21:45.033Z,6.50
2018-09-26T00:26:48.012Z,6.30
2018-09-26T00:31:50.999Z,6.20
2018-09-26T00:36:54.015Z,6.30
2018-09-26T00:41:57.017Z,6.20
2018-09-26T00:47:00.032Z,6.20
2018-09-26T00:52:03.783Z,6.30
2018-09-26T00:57:06.759Z,6.30
2018-09-26T01:02:09.736Z,6.20
2018-09-26T01:07:12.730Z,6.10
2018-09-26T01:12:15.753Z,6.10
2018-09-26T01:17:18.776Z,6.00
2018-09-26T01:22:21.776Z,6.00
2018-09-26T01:27:24.799Z,6.10
2018-09-26T01:32:27.761Z,6.10
2018-09-26T01:37:30.772Z,6.10
2018-09-26T01:42:33.776Z,6.10
2018-09-26T01:47:36.889Z,6.10
2018-09-26T01:52:39.905Z,6.20
2018-09-26T01:57:42.928Z,6.20
2018-09-26T02:02:45.960Z,6.20
2018-09-26T02:07:48.975Z,6.20
2018-09-26T02:12:52.059Z,6.20
2018-09-26T02:17:55.168Z,6.40
2018-09-26T02:22:58.148Z,6.30
2018-09-26T02:28:03.909Z,6.20
2018-09-26T02:33:07.037Z,6.00
2018-09-26T02:38:09.994Z,6.00
2018-09-26T02:43:12.988Z,5.90
2018-09-26T02:48:21.603Z,5.90
2018-09-26T02:53:24.588Z,5.80
2018-09-26T02:58:27.584Z,5.70
2018-09-26T03:03:30.655Z,5.80
2018-09-26T03:08:33.588Z,5.80
2018-09-26T03:13:36.555Z,5.80
2018-09-26T03:18:39.544Z,5.80
2018-09-26T03:23:42.539Z,5.80
2018-09-26T03:28:45.537Z,5.70
2018-09-26T03:33:48.597Z,5.60
2018-09-26T03:38:51.594Z,5.60
2018-09-26T03:43:54.567Z,5.50
2018-09-26T03:48:57.547Z,5.60
2018-09-26T03:54:02.687Z,5.60
2018-09-26T03:59:06.100Z,5.60
2018-09-26T04:04:09.062Z,5.60
2018-09-26T04:09:12.072Z,5.60
2018-09-26T04:14:15.048Z,5.50
2018-09-26T04:19:18.056Z,5.40
2018-09-26T04:24:20.995Z,5.50
2018-09-26T04:29:24.035Z,5.50
2018-09-26T04:34:27.018Z,5.50
2018-09-26T04:39:30.053Z,5.40
2018-09-26T04:44:33.106Z,5.30
2018-09-26T04:49:36.650Z,5.30
2018-09-26T04:54:39.619Z,5.40
2018-09-26T04:59:42.615Z,5.40
2018-09-26T05:04:45.567Z,5.40
2018-09-26T05:09:48.550Z,5.40
2018-09-26T05:14:51.633Z,5.50
2018-09-26T05:19:54.634Z,5.40
2018-09-26T05:24:57.628Z,5.40
2018-09-26T05:30:01.623Z,5.30
2018-09-26T05:35:04.745Z,5.30
2018-09-26T05:40:07.766Z,5.40
2018-09-26T05:45:10.820Z,5.60
2018-09-26T05:50:13.879Z,5.70
2018-09-26T05:55:16.864Z,5.70
2018-09-26T06:00:19.898Z,5.80
2018-09-26T06:05:22.926Z,6.00
2018-09-26T06:10:25.896Z,6.30
2018-09-26T06:15:28.895Z,6.50
2018-09-26T06:20:31.891Z,6.70
2018-09-26T06:25:34.956Z,7.10
2018-09-26T06:30:38.058Z,7.90
2018-09-26T06:35:41.075Z,8.10
2018-09-26T06:40:44.079Z,8.30
2018-09-26T06:45:47.849Z,8.50
2018-09-26T06:50:50.968Z,8.70
2018-09-26T06:55:53.951Z,9.00
2018-09-26T07:00:56.932Z,9.00
2018-09-26T07:05:59.922Z,8.90
2018-09-26T07:11:03.618Z,8.80
2018-09-26T07:16:06.688Z,8.80
2018-09-26T07:21:10.213Z,9.20
2018-09-26T07:26:13.187Z,9.70
2018-09-26T07:31:16.172Z,10.10
2018-09-26T07:36:19.233Z,11.00
2018-09-26T07:41:22.271Z,11.20
2018-09-26T07:46:26.263Z,10.80
2018-09-26T07:51:29.439Z,11.40
2018-09-26T07:56:32.567Z,11.90
2018-09-26T08:01:35.651Z,12.20
2018-09-26T08:06:38.645Z,12.30
2018-09-26T08:11:41.644Z,11.80
2018-09-26T08:16:44.631Z,11.60
2018-09-26T08:21:47.636Z,11.50
2018-09-26T08:26:50.620Z,11.80
2018-09-26T08:31:53.707Z,12.00
2018-09-26T08:36:56.775Z,12.10
2018-09-26T08:41:59.745Z,12.50
2018-09-26T08:47:05.739Z,12.70
2018-09-26T08:52:08.749Z,13.10
2018-09-26T08:57:11.807Z,13.20
2018-09-26T09:02:15.680Z,13.20
2018-09-26T09:07:18.647Z,13.10
2018-09-26T09:12:21.659Z,13.10
2018-09-26T09:17:24.672Z,13.50
2018-09-26T09:22:27.748Z,13.80
2018-09-26T09:27:30.790Z,13.60
2018-09-26T09:32:35.226Z,13.40
2018-09-26T09:37:38.215Z,14.00
2018-09-26T09:42:41.248Z,14.00
2018-09-26T09:47:44.260Z,14.50
2018-09-26T09:52:47.239Z,15.00
2018-09-26T10:05:44.293Z,14.90
2018-09-26T10:10:47.329Z,15.30
2018-09-26T10:15:50.321Z,15.40
2018-09-26T10:20:53.265Z,15.90
2018-09-26T10:25:56.336Z,16.10
2018-09-26T10:30:59.281Z,16.20
2018-09-26T10:36:03.818Z,16.10
2018-09-26T10:41:06.831Z,16.10
2018-09-26T10:46:09.808Z,15.60
2018-09-26T10:51:12.756Z,15.80
2018-09-26T10:56:15.737Z,16.20
2018-09-26T11:01:18.676Z,16.20
2018-09-26T11:06:21.631Z,16.30
2018-09-26T11:11:24.676Z,16.60
2018-09-26T11:16:27.689Z,16.60
2018-09-26T11:21:30.623Z,16.60
2018-09-26T11:26:33.606Z,16.60
2018-09-26T11:31:36.602Z,16.90
2018-09-26T11:36:39.535Z,17.40
2018-09-26T11:41:42.508Z,17.40
2018-09-26T11:46:45.512Z,17.50
2018-09-26T11:51:48.494Z,17.40
2018-09-26T11:56:51.407Z,17.60
2018-09-26T12:01:54.484Z,17.70
2018-09-26T12:06:57.949Z,17.70
2018-09-26T12:12:03.217Z,17.80
2018-09-26T12:17:06.477Z,17.90
2018-09-26T12:22:09.560Z,18.00
2018-09-26T12:27:12.705Z,18.20
2018-09-26T12:32:15.714Z,18.20
2018-09-26T12:37:18.710Z,18.40
2018-09-26T12:42:21.730Z,18.10
2018-09-26T12:47:24.671Z,18.00
2018-09-26T12:52:27.594Z,18.20
2018-09-26T12:57:30.579Z,18.20
2018-09-26T13:02:33.637Z,18.00
2018-09-26T13:07:36.584Z,18.00
2018-09-26T13:12:39.534Z,18.00
2018-09-26T13:17:42.483Z,18.50
2018-09-26T13:22:45.456Z,18.60
2018-09-26T13:27:48.391Z,18.70
2018-09-26T13:32:51.980Z,18.50
2018-09-26T13:37:54.901Z,18.40
2018-09-26T13:42:57.872Z,18.40
2018-09-26T13:48:01.570Z,18.50
2018-09-26T13:53:04.521Z,18.30
2018-09-26T13:58:07.540Z,18.50
2018-09-26T14:03:10.497Z,18.20
2018-09-26T14:08:13.523Z,18.20
2018-09-26T14:13:16.474Z,18.40
2018-09-26T14:18:19.492Z,18.20
2018-09-26T14:23:22.361Z,18.20
2018-09-26T14:28:25.386Z,18.20
2018-09-26T14:33:28.318Z,18.60
2018-09-26T14:38:31.250Z,18.70
2018-09-26T14:43:34.227Z,18.90
2018-09-26T14:48:37.206Z,18.80
2018-09-26T14:53:40.199Z,18.50
2018-09-26T14:58:43.166Z,18.20
2018-09-26T15:03:46.105Z,18.20
2018-09-26T15:08:49.203Z,18.30
2018-09-26T15:13:52.120Z,18.20
2018-09-26T15:18:55.088Z,18.20
2018-09-26T15:23:58.262Z,18.10
2018-09-26T15:29:03.622Z,17.80
2018-09-26T15:34:06.722Z,17.70
2018-09-26T15:39:10.476Z,17.70
2018-09-26T15:44:13.422Z,17.60
2018-09-26T15:49:17.187Z,17.40
2018-09-26T15:54:20.164Z,17.30
2018-09-26T15:59:23.211Z,17.30
2018-09-26T16:04:26.781Z,17.20
2018-09-26T16:09:29.686Z,17.10
2018-09-26T16:14:32.634Z,17.00
2018-09-26T16:19:35.675Z,17.00
2018-09-26T16:24:38.750Z,17.00
2018-09-26T16:29:41.815Z,17.00
2018-09-26T16:34:44.857Z,16.80
2018-09-26T16:39:47.795Z,16.70
2018-09-26T16:44:50.766Z,16.60
2018-09-26T16:49:53.803Z,16.40
2018-09-26T16:54:56.805Z,16.30
2018-09-26T16:59:59.989Z,16.20
2018-09-26T17:05:03.840Z,15.90
2018-09-26T17:10:06.926Z,15.70
2018-09-26T17:15:10.161Z,15.50
2018-09-26T17:20:13.267Z,15.20
2018-09-26T17:25:16.223Z,14.90
2018-09-26T17:30:19.220Z,14.70
2018-09-26T17:35:22.343Z,14.50
2018-09-26T17:40:25.343Z,14.30
2018-09-26T17:45:28.470Z,14.10
2018-09-26T17:50:31.379Z,13.80
2018-09-26T17:55:34.412Z,13.60
2018-09-26T18:00:37.504Z,13.40
2018-09-26T18:05:40.506Z,13.20
2018-09-26T18:10:43.524Z,13.00
2018-09-26T18:15:46.847Z,12.80
2018-09-26T18:20:49.949Z,12.60
2018-09-26T18:25:53.005Z,12.30
2018-09-26T18:30:55.996Z,12.00
2018-09-26T18:41:08.279Z,11.90
2018-09-26T18:46:11.433Z,11.70
2018-09-26T18:51:14.396Z,11.50
2018-09-26T18:56:17.378Z,11.30
2018-09-26T19:01:20.359Z,11.20
2018-09-26T19:06:23.378Z,11.20
2018-09-26T19:11:26.549Z,11.00
2018-09-26T19:16:30.164Z,10.80
2018-09-26T19:21:33.272Z,10.60
2018-09-26T19:26:36.204Z,10.70
2018-09-26T19:31:39.184Z,10.70
2018-09-26T19:36:42.213Z,10.70
2018-09-26T19:41:45.301Z,10.50
2018-09-26T19:46:48.284Z,10.10
2018-09-26T19:51:51.745Z,10.00
2018-09-26T19:56:54.832Z,10.10
2018-09-26T20:01:57.902Z,10.00
2018-09-26T20:07:01.669Z,9.90
2018-09-26T20:12:05.625Z,9.80
2018-09-26T20:17:08.872Z,9.80
2018-09-26T20:22:11.924Z,9.90
2018-09-26T20:27:15.207Z,9.70
2018-09-26T20:32:18.095Z,9.80
2018-09-26T20:37:21.077Z,9.80
2018-09-26T20:42:24.091Z,9.80
2018-09-26T20:47:27.229Z,9.80
2018-09-26T20:52:30.300Z,9.70
2018-09-26T20:57:33.308Z,9.70
2018-09-26T21:02:36.296Z,9.70
2018-09-26T21:07:40.110Z,9.50
2018-09-26T21:12:43.148Z,9.40
2018-09-26T21:17:46.148Z,9.30
2018-09-26T21:22:49.398Z,9.10
2018-09-26T21:27:52.348Z,9.00
2018-09-26T21:32:55.541Z,8.90
2018-09-26T21:37:58.660Z,8.80
2018-09-26T21:43:03.607Z,8.80
2018-09-26T21:48:06.556Z,8.90
2018-09-26T21:53:09.560Z,9.00
2018-09-26T21:58:12.791Z,9.00
2018-09-26T22:03:16.000Z,9.00
2018-09-26T22:08:19.355Z,8.90
2018-09-26T22:13:22.912Z,8.80
2018-09-26T22:18:26.179Z,8.60
2018-09-26T22:23:29.427Z,8.30
2018-09-26T22:28:33.113Z,8.30
2018-09-26T22:33:36.221Z,8.30
2018-09-26T22:38:39.483Z,8.20
2018-09-26T22:43:42.688Z,8.20
2018-09-26T22:48:46.139Z,8.30
2018-09-26T22:53:49.556Z,8.30
2018-09-26T22:58:52.930Z,8.30
2018-09-26T23:03:56.760Z,8.30
2018-09-26T23:08:59.852Z,8.20
2018-09-26T23:14:04.496Z,7.80
2018-09-26T23:19:07.732Z,7.60
2018-09-26T23:24:10.872Z,7.60
2018-09-26T23:29:13.947Z,7.60
2018-09-26T23:34:17.021Z,7.70
2018-09-26T23:39:20.286Z,7.80
2018-09-26T23:44:23.983Z,7.80
2018-09-26T23:49:27.085Z,7.60
2018-09-26T23:54:30.214Z,7.50
2018-09-26T23:59:33.611Z,7.40
